Overview Statistics Trail Chart Weather Telemetry Raw packets
 

This is the latest recevied weather packets stored in our database for station/object KI4KWR-1. If no packets are shown the sender has not sent any weather packets the latest 10 day(s).

<< 25 26 27 28 29 30 31 >>
Time Temp. Humidity Pressure Rain* Wind** Luminosity Snow
1788031804 32.78° C 46% 989.4 hPa 0 mm - - -
1788030904 33.33° C 44% 989.7 hPa 0 mm - - -
1788030003 33.33° C 42% 989.7 hPa 0 mm - - -
1788029103 32.78° C 43% 990 hPa 0 mm - - -
1788028204 31.67° C 51% 990 hPa 0 mm - - -
1788027304 31.11° C 53% 990.1 hPa 0 mm - - -
1788026404 31.11° C 57% 990.2 hPa 0 mm - - -
1788025504 30.56° C 57% 990.5 hPa 0 mm - - -
1788024604 31.67° C 54% 990.6 hPa 0 mm - - -
1788023704 31.67° C 57% 990.7 hPa 0 mm - - -
1788022804 31.11° C 62% 991 hPa 0 mm - - -
1788021904 31.67° C 59% 991 hPa 0 mm - - -
1788021004 30.56° C 63% 991.1 hPa 0 mm - - -
1788020104 29.44° C 65% 991.3 hPa 0 mm - - -
1788019204 30° C 65% 991.4 hPa 0 mm - - -
1788018304 28.89° C 68% 991.3 hPa 0 mm - - -
1788017404 27.78° C 70% 991.2 hPa 0 mm - - -
1788016511 27.22° C 71% 991.1 hPa 0 mm - - -
1788015604 26.67° C 72% 991.2 hPa 0 mm - - -
1788014704 26.11° C 74% 991.2 hPa 0 mm - - -
1788013804 26.11° C 73% 991.1 hPa 0 mm - - -
1788012904 25.56° C 75% 990.9 hPa 0 mm - - -
1788012003 25° C 75% 990.9 hPa 0 mm - - -
1788011104 24.44° C 76% 990.7 hPa 0 mm - - -
1788010214 23.89° C 78% 990.6 hPa 0 mm - - -

* Rain latest hour (hover to see other rain measurements)
** Current wind speed in m/s (hover to see current wind gust speed)